Historyczne dane pomiarowe

Dodano dane terminowe – wersja testowa.

Dane z okresu 1951-2019

Wersja bazy: 1.34 [2019-03-16, lista zmian], aktualizacja planowana na 2019-04-15

Dane meteo z obszaru Polski uzyskane na podstawie danych udostępnionych przez Instytut Meteorologii i Gospodarki Wodnej – Państwowy Instytut Badawczy.

 

Wybierz Datę:    

       

TemperaturaWilgotnośćWiatrCiśnienieOpadyŚniegCzas trwania zjawisk
 Stacja t tx tn tng RH VA  wxwx mslp ppp RRR   cm mm wxwxwxwxwxwxwx
1984-05-15 1.9 3.3 0.0- 97.0 6.8 7.1 7.9 9.5 0.0- 792.1 3.1 2.9 0.2- 0.0 0.8 3.2 2.3- 17.4---
1984-05-16 5.1 8.6 0.2- 77.4 6.8 6.4 11.5 14.3 0.0- 793.0 4.8 2.1 2.7- 0.0 6.4 2.6------
1984-05-17 4.0 7.0 1.0- 77.1 6.2 6.0 12.4 14.6 1.0- 792.7 0.0 0.0 0.0- 0.0 8.4--- 3.3---
1984-05-18 3.5 6.6 1.1- 86.1 6.8 5.9 2.8 0.0 0.0- 797.6 3.5 1.1 2.4- 0.0 6.0 7.4-- 1.5 3.0- 8.8
1984-05-19 4.9 7.4 1.9- 77.9 6.8 5.0 6.4 3.8 0.0- 796.3 2.6 0.1 2.5- 0.0 10.6 2.3-- 1.6---
1984-05-20 7.3 12.5 3.2- 60.3 6.0 5.0 11.8 17.0 2.2- 795.1 7.0 0.0 7.0- 0.0 13.1 0.3------
1984-05-21 4.8 9.1 1.9- 94.6 8.2 6.9 15.9 23.0 12.6- 786.7 23.3 12.1 11.2- 0.0 0.2 13.8-- 16.2---
1984-05-22 1.5 3.4 0.4- 98.6 6.7 7.8 10.1 11.2 4.5- 792.2 2.1 0.1 2.0- 0.0 1.1 3.7 0.2- 17.7---
1984-05-23 0.3 1.8 -1.0- 99.3 6.2 7.9 8.9 9.3 0.0- 790.2 28.4 20.0 8.4- 0.0 0.0 2.8 5.7 4.8----
1984-05-24 -0.5 0.6 -2.0- 97.8 5.8 7.3 7.1 4.5 0.0- 785.3 2.5 2.5 0.0 10- 0.6- 10.1- 15.8---
1984-05-25 0.7 2.8 -1.8- 88.9 5.7 5.6 7.0 1.8 0.0- 787.4 0.0 0.0 0.0 7- 5.3--- 2.8- 4.5-
1984-05-26 1.6 3.2 -0.1- 90.6 6.2 5.4 2.8 0.0 0.0- 791.7 1.6 1.6 0.0- 0.0 3.1 1.8 1.5- 7.3- 4.0-
1984-05-27 2.5 5.2 0.8- 91.1 6.7 4.9 10.0 14.5 0.0- 795.1 13.5 1.0 12.5- 0.0 4.4 4.3-- 7.1- 5.0-
1984-05-28 2.8 4.3 1.5-100.0 7.5 8.0 8.3 6.5 0.0- 791.7 9.0 7.7 1.3- 0.0 0.0 19.5-- 24.0---
1984-05-29 2.0 3.2 1.2- 98.3 6.9 7.8 5.0 0.0 0.0- 791.5 5.2 5.1 0.1- 0.0 0.1 11.6-- 18.9---
1984-05-30 1.4 3.5 -0.5- 93.8 6.4 7.8 2.5 0.0 0.0- 794.1 2.8 1.6 1.2- 0.0 0.4 3.8 6.0- 17.3---
1984-05-31 3.1 6.6 0.6- 92.9 7.1 5.9 1.8 0.0 0.0- 796.8 0.0 0.0 0.0- 0.0 3.1 1.2-- 6.8- 3.5-
1984-06-01 4.4 7.4 2.7- 93.0 7.8 5.4 2.1 0.0 0.0- 796.6 4.1 0.4 3.7- 0.0 4.3 4.0-- 8.0- 5.0-
1984-06-02 7.0 11.8 3.2- 80.3 7.9 4.0 3.3 0.0 0.0- 801.2 0.0 0.0 0.0- 0.0 11.2--- 6.1---
1984-06-03 9.0 12.5 5.7- 69.4 8.0 2.9 2.5 0.0 0.0- 802.2 0.0 0.0 0.0- 0.0 7.9---- 2.0--
1984-06-04 6.9 10.3 5.5- 85.9 8.5 4.5 5.8 1.6 0.0- 795.6 11.4 0.5 10.9- 0.0 6.8 3.7-- 4.8 5.0--
1984-06-05 3.8 7.0 1.5- 96.3 7.7 7.1 14.0 19.8 12.8- 793.6 0.4 0.0 0.4- 0.0 3.9 3.9-- 17.9---
1984-06-06 3.7 6.0 1.4- 94.8 7.6 7.6 10.5 18.0 0.0- 794.6 13.3 13.3 0.0- 0.0 0.9 5.8-- 15.4---
1984-06-07 1.7 5.2 -1.5- 76.6 5.2 6.0 5.5 1.5 0.0- 793.3 18.6 14.2 4.4- 0.0 3.4 0.4 7.3- 9.2---
1984-06-08 0.0 2.0 -1.6- 98.0 6.0 7.4 6.8 0.0 0.0- 787.2 8.4 1.0 7.4 12 1.5 2.3- 3.9- 15.8---
1984-06-09 -0.2 0.2 -1.0- 99.9 6.0 8.0 7.3 0.0 0.0- 790.1 22.8 19.8 3.0 4 0.0 0.0- 13.7 0.8 24.0---
1984-06-10 0.1 0.6 -1.7- 96.4 5.9 7.3 8.3 10.5 0.0- 798.6 1.3 0.0 1.3 10 1.8 1.4- 0.3 1.0 16.7---
1984-06-11 -0.2 1.6 -1.7- 95.5 5.8 7.6 10.9 12.8 0.0- 801.3 4.4 3.9 0.5 9- 0.1 1.0 4.8- 20.3---
1984-06-12 -2.9 -1.5 -4.0- 94.0 4.6 6.9 6.1 0.0 0.0- 804.5 0.9 0.9 0.0 10- 1.0- 1.7- 9.6- 4.0-
1984-06-13 0.2 4.0 -4.5- 81.6 5.1 4.1 1.6 0.0 0.0- 805.7 0.1 0.0 0.1 10- 12.3----- 2.0-
198.9 ms

 

Źródłem pochodzenia danych jest Instytut Meteorologii i Gospodarki Wodnej – Państwowy Instytut Badawczy. Dane Instytutu Meteorologii i Gospodarki Wodnej – Państwowego Instytutu Badawczego zostały przetworzone.

Dane źródłowe można odnaleźć na stronie https://dane.imgw.pl